Time;durP1;ratioP1;P1;durP2;ratioP2;P2;SDS_P1;SDS_P2;PMS_P1;PMS_P2;Temp;Humidity;BMP_temperature;BMP_pressure;BME280_temperature;BME280_humidity;BME280_pressure;Samples;Min_cycle;Max_cycle;Signal;HPM_P1;HPM_P2
2023/05/21 00:01:15;;;;;;;31.25;21.55;;;;;;;14.44;79.70;98017.25;10464473;28;20049;-70
2023/05/21 00:06:35;;;;;;;33.43;22.53;;;;;;;14.39;79.86;98013.50;10490333;28;20115;-70
2023/05/21 00:11:57;;;;;;;29.13;20.77;;;;;;;14.37;79.66;98004.19;10490056;28;20111;-70
2023/05/21 00:17:17;;;;;;;32.83;21.73;;;;;;;14.37;80.33;97999.31;10475664;28;20147;-70
2023/05/21 00:22:39;;;;;;;33.15;21.45;;;;;;;14.31;79.84;97991.28;10489414;28;20119;-70
2023/05/21 00:28:00;;;;;;;29.25;20.58;;;;;;;14.29;80.35;97993.25;10504100;28;20072;-70
2023/05/21 00:33:20;;;;;;;33.97;21.65;;;;;;;14.28;80.21;97986.16;10489107;28;20041;-70
2023/05/21 00:38:42;;;;;;;29.73;20.42;;;;;;;14.25;81.44;97982.50;10474704;28;20049;-70
2023/05/21 00:44:03;;;;;;;31.02;21.58;;;;;;;14.24;80.77;97983.13;10474845;28;20195;-70
2023/05/21 00:49:24;;;;;;;31.45;21.60;;;;;;;14.18;81.07;97977.16;10488315;28;20116;-70
2023/05/21 00:54:46;;;;;;;31.67;20.98;;;;;;;14.16;80.73;97974.97;10474296;28;20111;-70
2023/05/21 01:00:07;;;;;;;31.58;21.45;;;;;;;14.11;81.53;97970.50;10474413;28;20068;-70
2023/05/21 01:05:28;;;;;;;32.95;21.52;;;;;;;14.03;81.25;97967.22;10487791;28;20183;-70
2023/05/21 01:10:49;;;;;;;32.33;21.85;;;;;;;13.94;82.57;97959.66;10473654;28;20064;-70
2023/05/21 01:16:12;;;;;;;34.08;22.02;;;;;;;13.91;83.01;97961.63;10487367;28;20045;-70
2023/05/21 01:21:34;;;;;;;35.90;24.02;;;;;;;13.87;82.76;97955.78;10487583;28;20115;-70
2023/05/21 01:26:57;;;;;;;35.10;21.90;;;;;;;13.87;82.46;97955.03;10473526;28;20489;-70
2023/05/21 01:32:24;;;;;;;33.78;21.60;;;;;;;13.86;82.31;97953.59;10472900;28;20497;-70
2023/05/21 01:37:50;;;;;;;31.70;20.83;;;;;;;13.84;82.50;97954.19;10472461;28;20111;-70
2023/05/21 01:43:11;;;;;;;31.23;21.45;;;;;;;13.82;82.59;97959.69;10485959;28;20116;-70
2023/05/21 01:48:31;;;;;;;31.23;21.23;;;;;;;13.83;82.62;97952.75;10472166;28;20474;-70
2023/05/21 01:53:52;;;;;;;30.13;20.00;;;;;;;13.79;82.67;97949.69;10458106;28;20041;-70
2023/05/21 01:59:12;;;;;;;29.63;21.08;;;;;;;13.82;83.22;97954.09;10485628;28;20179;-70
2023/05/21 02:04:33;;;;;;;30.88;22.23;;;;;;;13.79;84.05;97946.88;10484805;28;20577;-70
2023/05/21 02:09:54;;;;;;;30.75;22.52;;;;;;;13.76;82.88;97948.13;10471208;28;20108;-70
2023/05/21 02:15:16;;;;;;;33.50;23.20;;;;;;;13.71;83.96;97952.03;10471015;28;20509;-70
2023/05/21 02:20:38;;;;;;;33.38;21.60;;;;;;;13.64;83.80;97948.13;10484597;28;20504;-70
2023/05/21 02:25:58;;;;;;;28.90;20.45;;;;;;;13.61;83.28;97951.44;10470760;28;20545;-70
2023/05/21 02:31:19;;;;;;;32.10;22.73;;;;;;;13.57;83.95;97951.19;10484300;28;20120;-70
2023/05/21 02:36:40;;;;;;;36.03;23.67;;;;;;;13.49;84.21;97947.91;10456519;28;20159;-70
2023/05/21 02:42:01;;;;;;;34.78;23.17;;;;;;;13.43;83.74;97943.41;10470527;28;20119;-70
2023/05/21 02:47:22;;;;;;;32.13;23.08;;;;;;;13.39;84.62;97943.16;10455838;28;20139;-70
2023/05/21 02:52:43;;;;;;;33.90;23.17;;;;;;;13.40;86.39;97932.66;10483800;28;20541;-70
2023/05/21 02:58:03;;;;;;;34.65;22.80;;;;;;;13.38;85.19;97930.47;10469567;28;20525;-70
2023/05/21 03:03:24;;;;;;;32.65;22.67;;;;;;;13.41;85.48;97942.53;10469364;28;20129;-70
2023/05/21 03:08:45;;;;;;;36.53;22.80;;;;;;;13.44;86.00;97952.56;10455675;28;20120;-70
2023/05/21 03:14:06;;;;;;;36.72;23.23;;;;;;;13.48;86.53;97938.03;10468930;28;20546;-70
2023/05/21 03:19:29;;;;;;;35.60;22.55;;;;;;;13.50;85.68;97936.06;10482835;28;20478;-70
2023/05/21 03:24:50;;;;;;;32.23;22.03;;;;;;;13.56;85.89;97939.25;10483346;28;20115;-70
2023/05/21 03:30:11;;;;;;;37.83;22.80;;;;;;;13.67;86.17;97943.38;10482994;28;20163;-70
2023/05/21 03:35:49;;;;;;;36.00;23.33;;;;;;;13.77;85.74;97935.53;10459803;28;20501;-70
2023/05/21 03:41:10;;;;;;;33.33;22.10;;;;;;;13.90;85.63;97926.50;10454973;28;20103;-70
2023/05/21 03:46:33;;;;;;;33.15;22.92;;;;;;;14.06;84.77;97932.28;10468864;28;20044;-70
2023/05/21 03:52:03;;;;;;;31.63;22.80;;;;;;;14.14;84.27;97940.44;10469649;28;20170;-70
2023/05/21 03:57:23;;;;;;;31.23;22.00;;;;;;;14.31;84.54;97940.75;10468680;28;20123;-70
2023/05/21 04:02:44;;;;;;;28.00;21.38;;;;;;;14.57;84.36;97944.31;10468018;28;20557;-70
2023/05/21 04:08:09;;;;;;;26.55;20.17;;;;;;;14.81;83.75;97938.56;10455326;28;20116;-70
2023/05/21 04:13:30;;;;;;;29.67;22.15;;;;;;;15.08;82.70;97943.50;10468037;28;20036;-70
2023/05/21 04:18:51;;;;;;;30.52;21.25;;;;;;;15.38;81.95;97939.47;10481698;28;20111;-71
2023/05/21 04:24:12;;;;;;;31.70;21.90;;;;;;;15.67;81.46;97944.50;10483846;28;20068;-70
2023/05/21 04:29:59;;;;;;;31.50;22.33;;;;;;;16.05;80.94;97942.16;10482970;28;20449;-70
2023/05/21 04:35:20;;;;;;;30.20;22.25;;;;;;;16.43;79.89;97957.38;10461390;28;20064;-70
2023/05/21 04:40:41;;;;;;;26.95;21.05;;;;;;;16.79;78.70;97952.00;10488671;28;20040;-70
2023/05/21 04:46:01;;;;;;;30.30;21.27;;;;;;;17.15;77.97;97961.44;10488459;28;20068;-71
2023/05/21 04:51:23;;;;;;;30.48;21.02;;;;;;;17.49;75.46;97955.88;10474635;28;20379;-71
2023/05/21 04:56:46;;;;;;;29.42;20.73;;;;;;;17.92;73.74;97966.91;10474520;28;20452;-69
2023/05/21 05:02:07;;;;;;;28.38;22.27;;;;;;;18.34;72.86;97959.50;10474662;28;20099;-69
2023/05/21 05:07:28;;;;;;;25.77;20.30;;;;;;;18.81;71.97;97950.75;10488083;28;20044;-69
2023/05/21 05:12:49;;;;;;;27.52;20.02;;;;;;;19.36;69.89;97952.09;10487561;28;20501;-70
2023/05/21 05:18:11;;;;;;;30.10;21.60;;;;;;;19.89;66.38;97951.16;10487631;28;20052;-70
2023/05/21 05:23:33;;;;;;;25.30;19.17;;;;;;;20.03;64.93;97951.63;10460010;28;20102;-70
2023/05/21 05:28:54;;;;;;;24.10;18.80;;;;;;;20.38;62.44;97953.50;10487313;28;20037;-70
2023/05/21 05:34:15;;;;;;;25.88;19.80;;;;;;;20.87;62.16;97952.19;10486452;28;20061;-70
2023/05/21 05:39:36;;;;;;;27.70;19.15;;;;;;;21.15;58.70;97953.03;10458747;28;20044;-70
2023/05/21 05:44:57;;;;;;;22.77;17.77;;;;;;;21.71;58.55;97946.78;10472666;28;20482;-70
2023/05/21 05:50:18;;;;;;;25.60;18.05;;;;;;;22.26;56.92;97945.41;10486090;28;20086;-70
2023/05/21 05:55:39;;;;;;;22.52;17.23;;;;;;;22.87;55.64;97941.16;10486281;28;20040;-70
2023/05/21 06:01:01;;;;;;;23.05;18.23;;;;;;;23.14;52.89;97942.47;10457941;28;20041;-70
2023/05/21 06:06:22;;;;;;;23.80;18.10;;;;;;;23.57;50.79;97938.34;10416951;28;20045;-70
2023/05/21 06:11:44;;;;;;;23.15;17.85;;;;;;;23.95;49.72;97934.81;10430273;28;20040;-70
2023/05/21 06:17:05;;;;;;;24.92;18.25;;;;;;;24.40;47.35;97936.28;10458958;28;20072;-70
2023/05/21 06:22:26;;;;;;;23.73;17.45;;;;;;;24.41;48.11;97934.88;10443479;28;20045;-70
2023/05/21 06:27:48;;;;;;;22.52;17.90;;;;;;;24.43;46.59;97948.47;10429811;28;20065;-70
2023/05/21 06:33:13;;;;;;;19.38;16.40;;;;;;;24.50;46.49;97944.28;10430310;28;20159;-70
2023/05/21 06:38:35;;;;;;;20.97;17.20;;;;;;;25.15;45.34;97945.25;10429451;28;20037;-70
2023/05/21 06:43:56;;;;;;;19.33;15.60;;;;;;;25.59;45.15;97932.94;10415209;28;20045;-70
2023/05/21 06:49:36;;;;;;;18.30;14.93;;;;;;;26.52;43.46;97935.97;10445029;28;20395;-71
2023/05/21 06:54:57;;;;;;;20.40;15.88;;;;;;;26.80;41.84;97935.47;10442279;28;20052;-70
2023/05/21 07:00:21;;;;;;;19.02;15.15;;;;;;;27.53;40.96;97935.84;10442385;28;20040;-70
2023/05/21 07:05:43;;;;;;;18.95;16.02;;;;;;;27.95;38.83;97935.25;10465999;28;20060;-70
2023/05/21 07:11:04;;;;;;;18.17;13.93;;;;;;;28.66;38.85;97937.47;10469310;28;20040;-70
2023/05/21 07:16:26;;;;;;;16.13;12.95;;;;;;;29.22;36.88;97944.53;10483075;28;20470;-70
2023/05/21 07:21:48;;;;;;;18.48;13.10;;;;;;;28.19;36.17;97937.44;10469087;28;20516;-71
2023/05/21 07:27:09;;;;;;;16.00;12.98;;;;;;;28.07;36.42;97943.16;10441870;28;20044;-71
2023/05/21 07:32:46;;;;;;;16.27;12.55;;;;;;;28.42;36.81;97946.06;10470611;28;20444;-71
2023/05/21 07:38:08;;;;;;;16.60;12.23;;;;;;;28.59;35.67;97941.06;10482517;28;20478;-71
2023/05/21 07:43:30;;;;;;;17.70;13.80;;;;;;;28.79;34.97;97944.63;10454846;28;20059;-70
2023/05/21 07:48:51;;;;;;;16.35;13.23;;;;;;;28.50;35.68;97943.22;10482726;28;20490;-71
2023/05/21 07:54:13;;;;;;;17.00;12.83;;;;;;;29.18;34.98;97950.28;10497680;28;20055;-70
2023/05/21 07:59:35;;;;;;;16.70;13.10;;;;;;;28.96;34.51;97938.88;10485265;28;20045;-70
2023/05/21 08:04:56;;;;;;;18.35;12.93;;;;;;;28.59;35.54;97944.63;10490123;28;20067;-70
2023/05/21 08:10:17;;;;;;;16.20;12.82;;;;;;;28.71;35.58;97941.03;10489965;28;20045;-70
2023/05/21 08:15:41;;;;;;;15.65;11.57;;;;;;;29.08;35.12;97942.41;10489795;28;20048;-70
2023/05/21 08:21:03;;;;;;;16.20;12.77;;;;;;;29.62;33.97;97940.78;10489425;28;20064;-71
2023/05/21 08:26:25;;;;;;;;;;;;;;;30.25;33.66;97936.81;10504965;28;20066;-70
2023/05/21 08:31:46;;;;;;;13.43;11.63;;;;;;;30.34;33.30;97926.69;10489587;28;19927;-70
2023/05/21 08:37:08;;;;;;;14.77;12.00;;;;;;;30.16;33.08;97929.69;10489282;28;20131;-71
2023/05/21 08:42:51;;;;;;;14.05;11.00;;;;;;;30.44;32.54;97932.34;10488895;28;20095;-70
2023/05/21 08:48:21;;;;;;;13.82;11.73;;;;;;;29.90;33.13;97927.69;10475867;28;20047;-70
2023/05/21 08:53:44;;;;;;;16.25;12.85;;;;;;;29.80;33.64;97933.50;10488236;28;20044;-70
2023/05/21 08:59:08;;;;;;;17.38;12.35;;;;;;;29.96;33.69;97918.31;10488196;28;20044;-70
2023/05/21 09:04:30;;;;;;;16.88;13.40;;;;;;;30.30;33.17;97917.34;10460137;28;20075;-71
2023/05/21 09:10:02;;;;;;;16.85;13.20;;;;;;;30.47;33.63;97921.53;10487616;28;20040;-72
2023/05/21 09:15:23;;;;;;;12.95;10.50;;;;;;;30.96;32.64;97913.13;10461059;28;20067;-72
2023/05/21 09:20:45;;;;;;;12.32;9.88;;;;;;;30.90;31.51;97907.44;10487571;28;20116;-71
2023/05/21 09:26:10;;;;;;;12.52;10.68;;;;;;;30.73;32.14;97911.94;10502371;28;20067;-71
2023/05/21 09:31:31;;;;;;;12.02;10.52;;;;;;;30.40;31.89;97911.50;10473285;28;20064;-72
2023/05/21 09:36:56;;;;;;;12.95;10.52;;;;;;;30.05;32.66;97914.63;10459636;28;20055;-71
2023/05/21 09:42:20;;;;;;;13.15;10.38;;;;;;;30.81;32.00;97911.88;10472698;28;20044;-71
2023/05/21 09:47:42;;;;;;;10.80;9.70;;;;;;;30.99;31.57;97917.44;10472828;28;20513;-71
2023/05/21 09:53:03;;;;;;;11.60;9.38;;;;;;;30.95;31.28;97913.88;10486432;28;20045;-72
2023/05/21 09:58:25;;;;;;;14.55;10.60;;;;;;;30.89;31.64;97899.53;10472178;28;20445;-72
2023/05/21 10:03:49;;;;;;;13.88;9.23;;;;;;;29.79;32.63;97906.19;10471670;28;20052;-72
2023/05/21 10:09:10;;;;;;;13.63;9.30;;;;;;;30.17;32.25;97896.59;10471520;28;20124;-71
2023/05/21 10:14:31;;;;;;;10.23;8.60;;;;;;;30.39;31.69;97896.38;10485277;28;20063;-71
2023/05/21 10:19:52;;;;;;;12.47;9.13;;;;;;;30.46;32.15;97894.16;10484964;28;20064;-71
2023/05/21 10:25:13;;;;;;;11.57;9.38;;;;;;;28.87;34.27;97891.47;10470293;28;20044;-71
2023/05/21 10:30:35;;;;;;;9.52;7.75;;;;;;;29.61;32.57;97878.25;10470953;28;20539;-71
2023/05/21 10:35:57;;;;;;;11.70;7.88;;;;;;;30.01;31.52;97874.38;10484628;28;20119;-71
2023/05/21 10:41:19;;;;;;;10.77;7.72;;;;;;;29.53;32.39;97858.91;10456515;28;20402;-71
2023/05/21 10:47:41;;;;;;;9.68;6.75;;;;;;;28.42;33.10;97869.28;10483834;28;20044;-71
2023/05/21 10:53:23;;;;;;;11.00;7.82;;;;;;;28.03;33.99;97862.13;10264113;28;20054;-71
2023/05/21 10:58:56;;;;;;;14.10;8.18;;;;;;;27.89;35.13;97857.06;10483692;28;20044;-71
2023/05/21 11:04:20;;;;;;;;;;;;;;;27.13;34.90;97875.53;10483732;28;20061;-71
2023/05/21 11:09:42;;;;;;;8.25;7.10;;;;;;;27.66;35.39;97871.41;10483496;28;20003;-71
2023/05/21 11:15:03;;;;;;;11.52;8.00;;;;;;;27.72;35.56;97861.38;10469469;28;20089;-71
2023/05/21 11:20:32;;;;;;;9.63;7.55;;;;;;;28.60;34.29;97857.06;10469275;28;20551;-71
2023/05/21 11:26:00;;;;;;;7.95;7.13;;;;;;;29.01;32.65;97854.81;10470129;28;20072;-71
2023/05/21 11:31:24;;;;;;;9.40;7.10;;;;;;;29.00;33.40;97850.50;10469210;28;20037;-71
2023/05/21 11:36:46;;;;;;;10.77;7.18;;;;;;;28.54;32.80;97856.34;10491319;28;20155;-71
2023/05/21 11:42:07;;;;;;;8.55;6.97;;;;;;;28.31;33.63;97847.78;10506297;28;20394;-71
2023/05/21 11:47:29;;;;;;;9.97;7.50;;;;;;;27.80;34.78;97849.94;10505979;28;20395;-71
2023/05/21 11:52:51;;;;;;;10.52;7.25;;;;;;;27.93;34.90;97848.50;10477304;28;20044;-71
2023/05/21 11:58:13;;;;;;;;;;;;;;;28.22;34.45;97852.06;10491245;28;20040;-72
2023/05/21 12:03:34;;;;;;;9.97;6.53;;;;;;;28.06;34.96;97838.44;10490372;28;19928;-71
2023/05/21 12:08:57;;;;;;;9.33;5.63;;;;;;;27.80;33.54;97841.31;10490392;28;20287;-71
2023/05/21 12:14:18;;;;;;;8.13;6.18;;;;;;;27.73;33.85;97834.13;10476328;28;20064;-71
2023/05/21 12:19:39;;;;;;;10.75;6.90;;;;;;;27.93;34.29;97839.88;10490030;28;20124;-71
2023/05/21 12:25:00;;;;;;;6.40;5.72;;;;;;;27.49;34.23;97826.19;10489906;28;20044;-71
2023/05/21 12:30:21;;;;;;;9.37;6.13;;;;;;;27.38;34.29;97823.28;10489298;28;20041;-71
2023/05/21 12:35:49;;;;;;;9.97;6.37;;;;;;;27.63;33.62;97821.19;10459145;28;20044;-71
2023/05/21 12:41:10;;;;;;;7.00;5.07;;;;;;;27.69;33.41;97822.66;10475991;28;20123;-71
2023/05/21 12:46:30;;;;;;;6.38;4.80;;;;;;;27.81;32.98;97817.66;10488141;28;20478;-71
2023/05/21 12:51:52;;;;;;;6.22;5.60;;;;;;;27.81;32.58;97819.81;10488695;28;20045;-71
2023/05/21 12:57:17;;;;;;;9.27;5.40;;;;;;;26.92;33.86;97818.09;10474282;28;20044;-71
2023/05/21 13:02:42;;;;;;;7.28;5.88;;;;;;;27.06;34.23;97809.59;10488567;28;20091;-71
2023/05/21 13:08:05;;;;;;;8.85;5.18;;;;;;;27.19;32.65;97804.63;10460939;28;20548;-71
2023/05/21 13:13:25;;;;;;;8.00;5.20;;;;;;;27.23;32.61;97796.06;10487457;28;20040;-71
2023/05/21 13:18:46;;;;;;;7.78;4.60;;;;;;;27.37;29.47;97801.09;10473630;28;20041;-71
2023/05/21 13:24:07;;;;;;;7.70;4.72;;;;;;;27.58;29.14;97796.81;10487435;28;20048;-71
2023/05/21 13:29:28;;;;;;;7.22;4.57;;;;;;;27.46;28.75;97798.94;10472959;28;20044;-71
2023/05/21 13:34:48;;;;;;;5.50;4.32;;;;;;;27.14;27.84;97788.16;10486508;28;20124;-71
2023/05/21 13:40:13;;;;;;;4.88;3.80;;;;;;;26.99;27.60;97788.06;10501477;28;20075;-71
2023/05/21 13:45:35;;;;;;;7.78;4.85;;;;;;;26.40;29.28;97784.94;10458853;28;20048;-71
2023/05/21 13:50:56;;;;;;;6.00;4.50;;;;;;;26.34;29.77;97782.03;10485997;28;20048;-71
2023/05/21 13:56:17;;;;;;;6.45;4.32;;;;;;;26.63;29.09;97773.59;10484872;28;20041;-71
2023/05/21 14:01:38;;;;;;;6.05;4.25;;;;;;;26.92;29.12;97766.56;10485630;28;20052;-71
2023/05/21 14:06:58;;;;;;;6.43;4.63;;;;;;;26.86;30.33;97757.25;10485346;28;20045;-71
2023/05/21 14:12:20;;;;;;;5.30;4.55;;;;;;;26.41;30.94;97772.06;10457627;28;20045;-71
2023/05/21 14:17:41;;;;;;;8.50;4.75;;;;;;;26.48;31.62;97773.56;10485081;28;20482;-71
2023/05/21 14:23:02;;;;;;;6.22;4.43;;;;;;;26.67;30.34;97773.63;10484724;28;20090;-71
2023/05/21 14:28:23;;;;;;;7.15;3.78;;;;;;;26.63;27.59;97791.50;10470867;28;20049;-71
2023/05/21 14:33:43;;;;;;;5.10;3.70;;;;;;;26.60;27.19;97766.44;10484033;28;20044;-71
2023/05/21 14:39:04;;;;;;;5.60;3.53;;;;;;;26.73;27.74;97762.19;10456136;28;20098;-71
2023/05/21 14:44:25;;;;;;;6.90;4.13;;;;;;;26.78;27.73;97755.06;10456195;28;20493;-71
2023/05/21 14:49:46;;;;;;;7.65;4.05;;;;;;;26.80;28.73;97752.22;10456229;28;20124;-71
2023/05/21 14:55:11;;;;;;;5.35;4.13;;;;;;;27.03;28.67;97753.75;10484168;28;20044;-71
2023/05/21 15:00:33;;;;;;;4.60;3.90;;;;;;;26.99;27.94;97753.69;10483619;28;20402;-71
2023/05/21 15:05:53;;;;;;;6.07;3.70;;;;;;;26.77;27.49;97762.94;10469380;28;20052;-71
2023/05/21 15:11:14;;;;;;;4.57;3.67;;;;;;;26.53;27.39;97766.41;10482736;28;20367;-71
2023/05/21 15:16:35;;;;;;;5.22;3.65;;;;;;;26.36;26.96;97762.03;10469012;28;20041;-71
2023/05/21 15:21:56;;;;;;;6.18;3.47;;;;;;;26.31;26.81;97760.56;10468920;28;20395;-71
2023/05/21 15:27:17;;;;;;;8.82;4.10;;;;;;;26.33;27.53;97754.84;10468654;28;20051;-71
2023/05/21 15:32:37;;;;;;;10.05;4.20;;;;;;;26.24;28.09;97744.78;10469129;28;20068;-71
2023/05/21 15:37:58;;;;;;;4.75;3.35;;;;;;;26.28;28.00;97744.09;10468624;28;20486;-71
2023/05/21 15:43:19;;;;;;;5.53;4.10;;;;;;;26.32;27.97;97733.38;10468483;28;20379;-71
2023/05/21 15:48:40;;;;;;;6.75;4.30;;;;;;;26.09;26.59;97734.69;10482330;28;20473;-71
2023/05/21 15:54:00;;;;;;;4.70;3.45;;;;;;;25.85;26.90;97733.09;10497051;28;20044;-71
2023/05/21 15:59:21;;;;;;;5.43;3.70;;;;;;;25.78;27.44;97720.19;10497293;28;20102;-71
2023/05/21 16:04:42;;;;;;;5.78;3.70;;;;;;;25.71;27.62;97727.28;10468109;28;20533;-71
2023/05/21 16:10:03;;;;;;;7.85;3.92;;;;;;;25.66;27.65;97712.19;10482313;28;20406;-72
2023/05/21 16:15:24;;;;;;;7.25;4.22;;;;;;;25.60;28.24;97722.88;10496942;28;20120;-71
2023/05/21 16:20:45;;;;;;;5.65;4.13;;;;;;;25.44;28.97;97728.47;10471127;28;20098;-72
2023/05/21 16:26:07;;;;;;;6.53;4.10;;;;;;;25.35;29.74;97725.53;10475659;28;20048;-71
2023/05/21 16:31:28;;;;;;;8.60;4.10;;;;;;;25.29;29.66;97725.50;10475675;28;20044;-72
2023/05/21 16:36:50;;;;;;;6.95;4.35;;;;;;;25.26;30.24;97729.00;10503900;28;20488;-72
2023/05/21 16:42:11;;;;;;;6.70;4.20;;;;;;;25.19;30.26;97722.53;10503916;28;20123;-72
2023/05/21 16:47:31;;;;;;;7.90;4.70;;;;;;;25.04;30.60;97712.41;10488686;28;20040;-72
2023/05/21 16:52:52;;;;;;;6.82;4.40;;;;;;;24.96;30.99;97726.56;10474368;28;20064;-71
2023/05/21 16:58:13;;;;;;;8.82;4.57;;;;;;;24.90;30.93;97721.50;10488279;28;20048;-71
2023/05/21 17:03:34;;;;;;;5.18;4.03;;;;;;;24.79;30.81;97728.50;10487590;28;20083;-71
2023/05/21 17:08:54;;;;;;;5.63;4.18;;;;;;;24.71;30.75;97722.72;10487761;28;20039;-71
2023/05/21 17:14:15;;;;;;;6.53;4.97;;;;;;;24.63;30.79;97725.50;10473869;28;20064;-71
2023/05/21 17:19:53;;;;;;;10.43;6.10;;;;;;;24.47;34.66;97731.72;10502596;28;20501;-71
2023/05/21 17:25:14;;;;;;;7.53;5.38;;;;;;;24.02;38.88;97738.91;10459736;28;20119;-71
2023/05/21 17:30:35;;;;;;;9.05;5.53;;;;;;;23.67;40.75;97744.09;10487064;28;20048;-70
2023/05/21 17:35:56;;;;;;;7.80;5.57;;;;;;;23.45;41.48;97752.22;10486923;28;20098;-70
2023/05/21 17:41:18;;;;;;;10.18;5.57;;;;;;;23.24;42.87;97748.31;10501667;28;20588;-70
2023/05/21 17:46:38;;;;;;;5.47;4.85;;;;;;;23.00;43.42;97757.88;10472769;28;20045;-70
2023/05/21 17:52:01;;;;;;;9.52;5.30;;;;;;;22.79;43.90;97762.44;10472239;28;20045;-70
2023/05/21 17:57:22;;;;;;;7.00;5.47;;;;;;;22.62;44.77;97751.41;10471953;28;20497;-70
2023/05/21 18:02:44;;;;;;;7.17;5.23;;;;;;;22.43;45.51;97759.56;10484362;28;20426;-70
2023/05/21 18:08:08;;;;;;;12.00;5.88;;;;;;;22.26;45.90;97771.97;10498265;28;20044;-70
2023/05/21 18:13:29;;;;;;;7.50;5.63;;;;;;;22.04;45.55;97771.44;10485350;28;20044;-70
2023/05/21 18:18:50;;;;;;;7.85;5.53;;;;;;;21.91;45.88;97770.47;10453083;28;20410;-70
2023/05/21 18:24:11;;;;;;;8.02;5.22;;;;;;;21.72;46.52;97763.63;10466972;28;20055;-70
2023/05/21 18:29:32;;;;;;;6.85;4.97;;;;;;;21.55;46.89;97753.97;10467649;28;20116;-70
2023/05/21 18:34:53;;;;;;;7.32;5.05;;;;;;;21.43;47.55;97765.75;10456978;28;20066;-70
2023/05/21 18:40:13;;;;;;;9.10;5.38;;;;;;;21.25;48.06;97764.53;10456784;28;20394;-70
2023/05/21 18:45:35;;;;;;;9.50;4.97;;;;;;;21.10;48.55;97758.50;10469598;28;20044;-70
2023/05/21 18:50:56;;;;;;;7.63;5.35;;;;;;;20.97;48.58;97770.19;10470251;28;20074;-70
2023/05/21 18:56:17;;;;;;;8.88;5.40;;;;;;;20.79;49.35;97771.13;10469891;28;20497;-70
2023/05/21 19:01:38;;;;;;;8.63;5.45;;;;;;;20.64;49.73;97768.56;10483564;28;20128;-70
2023/05/21 19:06:58;;;;;;;8.23;5.13;;;;;;;20.53;49.54;97773.22;10469370;28;20053;-70
2023/05/21 19:12:19;;;;;;;6.68;4.95;;;;;;;20.41;49.68;97784.19;10455756;28;20041;-70
2023/05/21 19:17:40;;;;;;;8.63;5.32;;;;;;;20.30;50.34;97780.31;10469425;28;20079;-70
2023/05/21 19:23:01;;;;;;;7.88;5.40;;;;;;;20.17;50.25;97779.25;10483189;28;20115;-70
2023/05/21 19:28:21;;;;;;;5.93;4.65;;;;;;;20.11;51.03;97792.50;10469204;28;20442;-70
2023/05/21 19:33:42;;;;;;;7.95;5.18;;;;;;;20.03;51.05;97781.63;10498039;28;20079;-70
2023/05/21 19:39:03;;;;;;;6.97;4.85;;;;;;;19.99;51.58;97795.69;10482806;28;20079;-70
2023/05/21 19:44:24;;;;;;;8.20;5.15;;;;;;;19.93;52.22;97798.31;10468763;28;20048;-70
2023/05/21 19:49:44;;;;;;;8.48;5.78;;;;;;;19.86;52.39;97788.88;10482694;28;20070;-70
2023/05/21 19:55:07;;;;;;;8.82;6.13;;;;;;;19.78;52.53;97796.41;10484773;28;20119;-70
2023/05/21 20:00:28;;;;;;;7.20;5.40;;;;;;;19.65;52.69;97798.13;10476954;28;20070;-70
2023/05/21 20:05:49;;;;;;;7.50;5.53;;;;;;;19.57;53.64;97798.56;10462488;28;20067;-70
2023/05/21 20:11:10;;;;;;;9.05;6.10;;;;;;;19.48;53.53;97793.25;10476399;28;20036;-70
2023/05/21 20:16:30;;;;;;;9.02;5.70;;;;;;;19.36;54.11;97799.97;10490196;28;20509;-70
2023/05/21 20:21:51;;;;;;;8.68;6.18;;;;;;;19.28;55.17;97802.53;10475945;28;20394;-70
2023/05/21 20:27:17;;;;;;;8.48;5.53;;;;;;;19.25;54.88;97811.59;10475953;28;20497;-70
2023/05/21 20:32:37;;;;;;;9.60;5.80;;;;;;;19.20;55.48;97805.06;10476891;28;20033;-70
2023/05/21 20:38:00;;;;;;;13.15;5.68;;;;;;;19.14;55.38;97802.03;10475640;28;20394;-70
2023/05/21 20:43:23;;;;;;;7.88;5.13;;;;;;;19.08;55.28;97799.00;10475428;28;20045;-69
2023/05/21 20:48:44;;;;;;;9.43;5.05;;;;;;;19.02;55.96;97801.63;10475405;28;20174;-70
2023/05/21 20:54:05;;;;;;;8.35;5.60;;;;;;;18.98;56.19;97801.47;10488608;28;20098;-70
2023/05/21 20:59:26;;;;;;;6.40;5.15;;;;;;;18.92;56.53;97804.81;10460956;28;20072;-69
2023/05/21 21:04:47;;;;;;;8.82;5.55;;;;;;;18.83;56.65;97817.94;10473515;28;20067;-69
2023/05/21 21:10:08;;;;;;;10.38;5.10;;;;;;;18.78;56.84;97827.63;10474173;28;20052;-68
2023/05/21 21:15:29;;;;;;;6.65;5.13;;;;;;;18.71;57.83;97816.75;10473738;28;20075;-69
2023/05/21 21:20:50;;;;;;;10.88;5.43;;;;;;;18.64;57.26;97821.44;10502756;28;20040;-69
2023/05/21 21:26:11;;;;;;;8.07;5.55;;;;;;;18.59;57.68;97823.38;10473583;28;20072;-69
2023/05/21 21:31:32;;;;;;;9.73;5.75;;;;;;;18.54;58.62;97824.63;10459542;28;20409;-71
2023/05/21 21:36:53;;;;;;;7.65;4.97;;;;;;;18.46;58.08;97818.66;10486985;28;20107;-71
2023/05/21 21:42:14;;;;;;;9.75;5.72;;;;;;;18.41;58.92;97821.97;10486800;28;20075;-71
2023/05/21 21:47:35;;;;;;;9.60;5.32;;;;;;;18.36;58.62;97814.72;10486861;28;20417;-69
2023/05/21 21:52:56;;;;;;;8.25;5.90;;;;;;;18.27;59.20;97819.34;10458604;28;20506;-69
2023/05/21 21:58:16;;;;;;;8.40;5.38;;;;;;;18.22;59.40;97815.63;10485993;28;20047;-71
2023/05/21 22:03:37;;;;;;;10.30;6.20;;;;;;;18.15;60.24;97813.22;10471726;28;20512;-71
2023/05/21 22:08:58;;;;;;;6.68;5.55;;;;;;;18.09;60.55;97805.22;10471793;28;20056;-71
2023/05/21 22:14:19;;;;;;;8.52;5.57;;;;;;;17.94;60.37;97812.41;10485454;28;20036;-71
2023/05/21 22:19:39;;;;;;;9.25;5.63;;;;;;;17.81;61.56;97810.47;10470772;28;20040;-71
2023/05/21 22:25:00;;;;;;;8.25;5.38;;;;;;;17.68;61.60;97812.06;10500282;28;20577;-71
2023/05/21 22:30:21;;;;;;;10.15;5.70;;;;;;;17.59;61.83;97820.84;10443347;28;20048;-71
2023/05/21 22:35:43;;;;;;;10.02;6.18;;;;;;;17.44;63.06;97817.41;10470847;28;20044;-71
2023/05/21 22:41:04;;;;;;;7.70;5.60;;;;;;;17.42;62.94;97806.06;10484439;28;20048;-71
2023/05/21 22:46:25;;;;;;;9.35;5.63;;;;;;;17.35;63.30;97804.34;10484171;28;20124;-71
2023/05/21 22:51:46;;;;;;;8.20;5.70;;;;;;;17.32;63.04;97794.34;10484071;28;20070;-71
2023/05/21 22:57:07;;;;;;;8.13;5.95;;;;;;;17.26;63.52;97802.53;10498669;28;20123;-71
2023/05/21 23:02:29;;;;;;;10.55;5.82;;;;;;;17.18;64.11;97788.13;10498961;28;20398;-71
2023/05/21 23:07:50;;;;;;;11.48;5.95;;;;;;;17.17;64.05;97786.63;10483718;28;20408;-71
2023/05/21 23:13:11;;;;;;;8.85;5.07;;;;;;;17.12;64.22;97785.03;10483723;28;20379;-71
2023/05/21 23:18:33;;;;;;;6.20;5.18;;;;;;;17.12;64.40;97787.84;10469558;28;20119;-71
2023/05/21 23:23:54;;;;;;;7.35;4.95;;;;;;;17.14;64.51;97779.47;10483350;28;20098;-71
2023/05/21 23:29:15;;;;;;;7.80;5.45;;;;;;;17.13;64.77;97780.84;10469139;28;20049;-71
2023/05/21 23:34:36;;;;;;;8.48;5.43;;;;;;;17.10;64.77;97787.78;10483065;28;20048;-71
2023/05/21 23:39:57;;;;;;;7.82;5.00;;;;;;;17.04;64.86;97790.31;10469082;28;20048;-71
2023/05/21 23:45:17;;;;;;;9.25;5.10;;;;;;;16.83;64.71;97783.81;10497782;28;20059;-71
2023/05/21 23:50:38;;;;;;;9.45;5.75;;;;;;;16.57;65.68;97776.97;10469176;28;20045;-71
2023/05/21 23:55:59;;;;;;;8.57;5.65;;;;;;;16.50;65.78;97787.25;10468838;28;20041;-71
